sensor_id;sensor_type;location;lat;lon;timestamp;temperature;humidity
16515;DHT22;8370;52.556;7.970;2023-04-06T00:00:18;1.70;99.90
16515;DHT22;8370;52.556;7.970;2023-04-06T00:02:44;1.70;99.90
16515;DHT22;8370;52.556;7.970;2023-04-06T00:05:09;1.70;99.90
16515;DHT22;8370;52.556;7.970;2023-04-06T00:07:35;1.70;99.90
16515;DHT22;8370;52.556;7.970;2023-04-06T00:10:01;1.70;99.90
16515;DHT22;8370;52.556;7.970;2023-04-06T00:12:26;1.70;99.90
16515;DHT22;8370;52.556;7.970;2023-04-06T00:14:52;1.70;99.90
16515;DHT22;8370;52.556;7.970;2023-04-06T00:17:17;1.70;99.90
16515;DHT22;8370;52.556;7.970;2023-04-06T00:19:43;1.70;99.90
16515;DHT22;8370;52.556;7.970;2023-04-06T00:22:08;1.60;99.90
16515;DHT22;8370;52.556;7.970;2023-04-06T00:24:33;1.60;99.90
16515;DHT22;8370;52.556;7.970;2023-04-06T00:26:59;1.60;99.90
16515;DHT22;8370;52.556;7.970;2023-04-06T00:29:25;1.60;99.90
16515;DHT22;8370;52.556;7.970;2023-04-06T00:31:50;1.60;99.90
16515;DHT22;8370;52.556;7.970;2023-04-06T00:34:16;1.50;99.90
16515;DHT22;8370;52.556;7.970;2023-04-06T00:36:41;1.50;99.90
16515;DHT22;8370;52.556;7.970;2023-04-06T00:39:07;1.60;99.90
16515;DHT22;8370;52.556;7.970;2023-04-06T00:41:32;1.60;99.90
16515;DHT22;8370;52.556;7.970;2023-04-06T00:43:58;1.60;99.90
16515;DHT22;8370;52.556;7.970;2023-04-06T00:46:23;1.60;99.90
16515;DHT22;8370;52.556;7.970;2023-04-06T00:48:49;1.50;99.90
16515;DHT22;8370;52.556;7.970;2023-04-06T00:51:14;1.50;99.90
16515;DHT22;8370;52.556;7.970;2023-04-06T00:53:39;1.50;99.90
16515;DHT22;8370;52.556;7.970;2023-04-06T00:56:05;1.50;99.90
16515;DHT22;8370;52.556;7.970;2023-04-06T00:58:31;1.40;99.90
16515;DHT22;8370;52.556;7.970;2023-04-06T01:00:57;1.40;99.90
16515;DHT22;8370;52.556;7.970;2023-04-06T01:03:22;1.40;99.90
16515;DHT22;8370;52.556;7.970;2023-04-06T01:05:48;1.40;99.90
16515;DHT22;8370;52.556;7.970;2023-04-06T01:08:13;1.40;99.90
16515;DHT22;8370;52.556;7.970;2023-04-06T01:10:39;1.40;99.90
16515;DHT22;8370;52.556;7.970;2023-04-06T01:13:05;1.30;99.90
16515;DHT22;8370;52.556;7.970;2023-04-06T01:15:30;1.30;99.90
16515;DHT22;8370;52.556;7.970;2023-04-06T01:17:57;1.30;99.90
16515;DHT22;8370;52.556;7.970;2023-04-06T01:20:23;1.30;99.90
16515;DHT22;8370;52.556;7.970;2023-04-06T01:22:48;1.30;99.90
16515;DHT22;8370;52.556;7.970;2023-04-06T01:25:13;1.20;99.90
16515;DHT22;8370;52.556;7.970;2023-04-06T01:27:39;1.20;99.90
16515;DHT22;8370;52.556;7.970;2023-04-06T01:30:05;1.20;99.90
16515;DHT22;8370;52.556;7.970;2023-04-06T01:32:31;1.20;99.90
16515;DHT22;8370;52.556;7.970;2023-04-06T01:34:56;1.30;99.90
16515;DHT22;8370;52.556;7.970;2023-04-06T01:37:22;1.20;99.90
16515;DHT22;8370;52.556;7.970;2023-04-06T01:39:51;1.30;99.90
16515;DHT22;8370;52.556;7.970;2023-04-06T01:42:17;1.30;99.90
16515;DHT22;8370;52.556;7.970;2023-04-06T01:44:43;1.30;99.90
16515;DHT22;8370;52.556;7.970;2023-04-06T01:47:08;1.20;99.90
16515;DHT22;8370;52.556;7.970;2023-04-06T01:49:34;1.20;99.90
16515;DHT22;8370;52.556;7.970;2023-04-06T01:52:00;1.20;99.90
16515;DHT22;8370;52.556;7.970;2023-04-06T01:54:25;1.20;99.90
16515;DHT22;8370;52.556;7.970;2023-04-06T01:56:51;1.10;99.90
16515;DHT22;8370;52.556;7.970;2023-04-06T01:59:17;1.10;99.90
16515;DHT22;8370;52.556;7.970;2023-04-06T02:01:43;1.10;99.90
16515;DHT22;8370;52.556;7.970;2023-04-06T02:04:08;1.10;99.90
16515;DHT22;8370;52.556;7.970;2023-04-06T02:06:33;1.00;99.90
16515;DHT22;8370;52.556;7.970;2023-04-06T02:08:59;1.00;99.90
16515;DHT22;8370;52.556;7.970;2023-04-06T02:11:24;1.00;99.90
16515;DHT22;8370;52.556;7.970;2023-04-06T02:13:50;1.00;99.90
16515;DHT22;8370;52.556;7.970;2023-04-06T02:16:15;1.00;99.90
16515;DHT22;8370;52.556;7.970;2023-04-06T02:18:41;1.00;99.90
16515;DHT22;8370;52.556;7.970;2023-04-06T02:21:06;0.90;99.90
16515;DHT22;8370;52.556;7.970;2023-04-06T02:23:32;1.00;99.90
16515;DHT22;8370;52.556;7.970;2023-04-06T02:25:57;0.90;99.90
16515;DHT22;8370;52.556;7.970;2023-04-06T02:28:23;0.90;99.90
16515;DHT22;8370;52.556;7.970;2023-04-06T02:30:48;0.90;99.90
16515;DHT22;8370;52.556;7.970;2023-04-06T02:33:14;0.90;99.90
16515;DHT22;8370;52.556;7.970;2023-04-06T02:35:39;0.90;99.90
16515;DHT22;8370;52.556;7.970;2023-04-06T02:38:05;0.90;99.90
16515;DHT22;8370;52.556;7.970;2023-04-06T02:40:31;0.90;99.90
16515;DHT22;8370;52.556;7.970;2023-04-06T02:42:56;0.90;99.90
16515;DHT22;8370;52.556;7.970;2023-04-06T02:45:21;0.80;99.90
16515;DHT22;8370;52.556;7.970;2023-04-06T02:47:47;0.90;99.90
16515;DHT22;8370;52.556;7.970;2023-04-06T02:50:12;0.80;99.90
16515;DHT22;8370;52.556;7.970;2023-04-06T02:52:38;0.70;99.90
16515;DHT22;8370;52.556;7.970;2023-04-06T02:55:03;0.70;99.90
16515;DHT22;8370;52.556;7.970;2023-04-06T02:57:29;0.70;99.90
16515;DHT22;8370;52.556;7.970;2023-04-06T02:59:55;0.70;99.90
16515;DHT22;8370;52.556;7.970;2023-04-06T03:02:20;0.70;99.90
16515;DHT22;8370;52.556;7.970;2023-04-06T03:04:46;0.70;99.90
16515;DHT22;8370;52.556;7.970;2023-04-06T03:07:12;0.70;99.90
16515;DHT22;8370;52.556;7.970;2023-04-06T03:09:37;0.60;99.90
16515;DHT22;8370;52.556;7.970;2023-04-06T03:12:03;0.60;99.90
16515;DHT22;8370;52.556;7.970;2023-04-06T03:14:28;0.50;99.90
16515;DHT22;8370;52.556;7.970;2023-04-06T03:16:54;0.50;99.90
16515;DHT22;8370;52.556;7.970;2023-04-06T03:19:19;0.50;99.90
16515;DHT22;8370;52.556;7.970;2023-04-06T03:21:45;0.50;99.90
16515;DHT22;8370;52.556;7.970;2023-04-06T03:24:10;0.40;99.90
16515;DHT22;8370;52.556;7.970;2023-04-06T03:26:36;0.40;99.90
16515;DHT22;8370;52.556;7.970;2023-04-06T03:29:01;0.40;99.90
16515;DHT22;8370;52.556;7.970;2023-04-06T03:31:27;0.40;99.90
16515;DHT22;8370;52.556;7.970;2023-04-06T03:33:52;0.40;99.90
16515;DHT22;8370;52.556;7.970;2023-04-06T03:36:18;0.40;99.90
16515;DHT22;8370;52.556;7.970;2023-04-06T03:38:43;0.30;99.90
16515;DHT22;8370;52.556;7.970;2023-04-06T03:41:08;0.40;99.90
16515;DHT22;8370;52.556;7.970;2023-04-06T03:43:34;0.30;99.90
16515;DHT22;8370;52.556;7.970;2023-04-06T03:45:59;0.30;99.90
16515;DHT22;8370;52.556;7.970;2023-04-06T03:48:25;0.30;99.90
16515;DHT22;8370;52.556;7.970;2023-04-06T03:50:50;0.30;99.90
16515;DHT22;8370;52.556;7.970;2023-04-06T03:53:16;0.20;99.90
16515;DHT22;8370;52.556;7.970;2023-04-06T03:55:41;0.20;99.90
16515;DHT22;8370;52.556;7.970;2023-04-06T03:58:06;0.20;99.90
16515;DHT22;8370;52.556;7.970;2023-04-06T04:00:32;0.20;99.90
16515;DHT22;8370;52.556;7.970;2023-04-06T04:02:58;0.10;99.90
16515;DHT22;8370;52.556;7.970;2023-04-06T04:05:23;0.20;99.90
16515;DHT22;8370;52.556;7.970;2023-04-06T04:07:53;0.10;99.90
16515;DHT22;8370;52.556;7.970;2023-04-06T04:10:18;0.10;99.90
16515;DHT22;8370;52.556;7.970;2023-04-06T04:12:44;0.10;99.90
16515;DHT22;8370;52.556;7.970;2023-04-06T04:15:09;0.10;99.90
16515;DHT22;8370;52.556;7.970;2023-04-06T04:17:35;0.10;99.90
16515;DHT22;8370;52.556;7.970;2023-04-06T04:20:00;0.00;99.90
16515;DHT22;8370;52.556;7.970;2023-04-06T04:22:26;0.00;99.90
16515;DHT22;8370;52.556;7.970;2023-04-06T04:24:53;0.00;99.90
16515;DHT22;8370;52.556;7.970;2023-04-06T04:27:18;0.00;99.90
16515;DHT22;8370;52.556;7.970;2023-04-06T04:29:43;0.00;99.90
16515;DHT22;8370;52.556;7.970;2023-04-06T04:32:09;0.00;99.90
16515;DHT22;8370;52.556;7.970;2023-04-06T04:34:34;0.00;99.90
16515;DHT22;8370;52.556;7.970;2023-04-06T04:37:00;-0.10;99.90
16515;DHT22;8370;52.556;7.970;2023-04-06T04:39:26;-0.10;99.90
16515;DHT22;8370;52.556;7.970;2023-04-06T04:41:51;-0.20;99.90
16515;DHT22;8370;52.556;7.970;2023-04-06T04:44:17;-0.20;99.90
16515;DHT22;8370;52.556;7.970;2023-04-06T04:46:42;-0.20;99.90
16515;DHT22;8370;52.556;7.970;2023-04-06T04:49:07;-0.20;99.90
16515;DHT22;8370;52.556;7.970;2023-04-06T04:51:33;-0.20;99.90
16515;DHT22;8370;52.556;7.970;2023-04-06T04:53:59;-0.20;99.90
16515;DHT22;8370;52.556;7.970;2023-04-06T04:56:24;-0.20;99.90
16515;DHT22;8370;52.556;7.970;2023-04-06T04:58:50;-0.20;99.90
16515;DHT22;8370;52.556;7.970;2023-04-06T05:01:16;-0.20;99.90
16515;DHT22;8370;52.556;7.970;2023-04-06T05:03:41;-0.20;99.90
16515;DHT22;8370;52.556;7.970;2023-04-06T05:06:06;-0.20;99.90
16515;DHT22;8370;52.556;7.970;2023-04-06T05:08:32;-0.20;99.90
16515;DHT22;8370;52.556;7.970;2023-04-06T05:10:58;-0.10;99.90
16515;DHT22;8370;52.556;7.970;2023-04-06T05:13:23;-0.10;99.90
16515;DHT22;8370;52.556;7.970;2023-04-06T05:15:49;-0.10;99.90
16515;DHT22;8370;52.556;7.970;2023-04-06T05:18:14;-0.10;99.90
16515;DHT22;8370;52.556;7.970;2023-04-06T05:20:40;-0.10;99.90
16515;DHT22;8370;52.556;7.970;2023-04-06T05:23:06;0.00;99.90
16515;DHT22;8370;52.556;7.970;2023-04-06T05:25:31;0.00;99.90
16515;DHT22;8370;52.556;7.970;2023-04-06T05:27:57;0.00;99.90
16515;DHT22;8370;52.556;7.970;2023-04-06T05:30:22;0.00;99.90
16515;DHT22;8370;52.556;7.970;2023-04-06T05:32:48;0.10;99.90
16515;DHT22;8370;52.556;7.970;2023-04-06T05:35:13;0.10;99.90
16515;DHT22;8370;52.556;7.970;2023-04-06T05:37:39;0.10;99.90
16515;DHT22;8370;52.556;7.970;2023-04-06T05:40:04;0.10;99.90
16515;DHT22;8370;52.556;7.970;2023-04-06T05:42:37;0.20;99.90
16515;DHT22;8370;52.556;7.970;2023-04-06T05:45:03;0.20;99.90
16515;DHT22;8370;52.556;7.970;2023-04-06T05:47:29;0.30;99.90
16515;DHT22;8370;52.556;7.970;2023-04-06T05:49:55;0.40;99.90
16515;DHT22;8370;52.556;7.970;2023-04-06T05:52:20;0.40;99.90
16515;DHT22;8370;52.556;7.970;2023-04-06T05:54:46;0.50;99.90
16515;DHT22;8370;52.556;7.970;2023-04-06T05:57:11;0.60;99.90
16515;DHT22;8370;52.556;7.970;2023-04-06T05:59:36;0.70;99.90
16515;DHT22;8370;52.556;7.970;2023-04-06T06:02:02;0.70;99.90
16515;DHT22;8370;52.556;7.970;2023-04-06T06:04:27;0.80;99.90
16515;DHT22;8370;52.556;7.970;2023-04-06T06:06:53;0.90;99.90
16515;DHT22;8370;52.556;7.970;2023-04-06T06:09:18;0.90;99.90
16515;DHT22;8370;52.556;7.970;2023-04-06T06:11:44;1.00;99.90
16515;DHT22;8370;52.556;7.970;2023-04-06T06:14:10;1.10;99.90
16515;DHT22;8370;52.556;7.970;2023-04-06T06:16:35;1.10;99.90
16515;DHT22;8370;52.556;7.970;2023-04-06T06:19:01;1.20;99.90
16515;DHT22;8370;52.556;7.970;2023-04-06T06:21:26;1.30;99.90
16515;DHT22;8370;52.556;7.970;2023-04-06T06:23:52;1.40;99.90
16515;DHT22;8370;52.556;7.970;2023-04-06T06:26:19;1.40;99.90
16515;DHT22;8370;52.556;7.970;2023-04-06T06:28:44;1.50;99.90
16515;DHT22;8370;52.556;7.970;2023-04-06T06:31:10;1.60;99.90
16515;DHT22;8370;52.556;7.970;2023-04-06T06:33:35;1.70;99.90
16515;DHT22;8370;52.556;7.970;2023-04-06T06:36:01;1.80;99.90
16515;DHT22;8370;52.556;7.970;2023-04-06T06:38:26;1.90;99.90
16515;DHT22;8370;52.556;7.970;2023-04-06T06:40:51;2.00;99.90
16515;DHT22;8370;52.556;7.970;2023-04-06T06:43:17;2.20;99.90
16515;DHT22;8370;52.556;7.970;2023-04-06T06:45:42;2.20;99.90
16515;DHT22;8370;52.556;7.970;2023-04-06T06:48:08;2.30;99.90
16515;DHT22;8370;52.556;7.970;2023-04-06T06:50:34;2.40;99.90
16515;DHT22;8370;52.556;7.970;2023-04-06T06:52:59;2.50;99.90
16515;DHT22;8370;52.556;7.970;2023-04-06T06:55:25;2.60;99.90
16515;DHT22;8370;52.556;7.970;2023-04-06T06:57:52;2.60;99.90
16515;DHT22;8370;52.556;7.970;2023-04-06T07:00:17;2.60;99.90
16515;DHT22;8370;52.556;7.970;2023-04-06T07:02:43;2.70;99.90
16515;DHT22;8370;52.556;7.970;2023-04-06T07:05:08;2.80;99.90
16515;DHT22;8370;52.556;7.970;2023-04-06T07:07:34;2.90;99.90
16515;DHT22;8370;52.556;7.970;2023-04-06T07:10:00;3.00;99.90
16515;DHT22;8370;52.556;7.970;2023-04-06T07:12:26;3.00;99.90
16515;DHT22;8370;52.556;7.970;2023-04-06T07:14:51;3.10;99.90
16515;DHT22;8370;52.556;7.970;2023-04-06T07:17:17;3.20;99.90
16515;DHT22;8370;52.556;7.970;2023-04-06T07:19:42;3.30;99.90
16515;DHT22;8370;52.556;7.970;2023-04-06T07:22:07;3.30;99.90
16515;DHT22;8370;52.556;7.970;2023-04-06T07:24:33;3.40;99.90
16515;DHT22;8370;52.556;7.970;2023-04-06T07:26:59;3.50;99.90
16515;DHT22;8370;52.556;7.970;2023-04-06T07:29:26;3.60;99.90
16515;DHT22;8370;52.556;7.970;2023-04-06T07:31:51;3.70;99.90
16515;DHT22;8370;52.556;7.970;2023-04-06T07:34:17;3.80;99.90
16515;DHT22;8370;52.556;7.970;2023-04-06T07:36:42;3.90;99.90
16515;DHT22;8370;52.556;7.970;2023-04-06T07:39:08;4.00;99.90
16515;DHT22;8370;52.556;7.970;2023-04-06T07:41:33;4.10;99.90
16515;DHT22;8370;52.556;7.970;2023-04-06T07:43:59;4.30;99.90
16515;DHT22;8370;52.556;7.970;2023-04-06T07:46:24;4.40;99.90
16515;DHT22;8370;52.556;7.970;2023-04-06T07:48:50;4.50;99.90
16515;DHT22;8370;52.556;7.970;2023-04-06T07:51:18;4.60;99.90
16515;DHT22;8370;52.556;7.970;2023-04-06T07:53:44;4.70;99.90
16515;DHT22;8370;52.556;7.970;2023-04-06T07:56:09;4.80;99.90
16515;DHT22;8370;52.556;7.970;2023-04-06T07:58:34;4.90;99.90
16515;DHT22;8370;52.556;7.970;2023-04-06T08:01:00;5.00;99.90
16515;DHT22;8370;52.556;7.970;2023-04-06T08:03:26;5.10;99.90
16515;DHT22;8370;52.556;7.970;2023-04-06T08:05:52;5.20;99.90
16515;DHT22;8370;52.556;7.970;2023-04-06T08:08:18;5.30;99.90
16515;DHT22;8370;52.556;7.970;2023-04-06T08:10:43;5.40;99.90
16515;DHT22;8370;52.556;7.970;2023-04-06T08:13:09;5.60;99.90
16515;DHT22;8370;52.556;7.970;2023-04-06T08:15:34;5.70;99.90
16515;DHT22;8370;52.556;7.970;2023-04-06T08:18:00;5.80;99.90
16515;DHT22;8370;52.556;7.970;2023-04-06T08:20:25;5.80;99.90
16515;DHT22;8370;52.556;7.970;2023-04-06T08:22:50;5.90;99.90
16515;DHT22;8370;52.556;7.970;2023-04-06T08:25:16;6.00;99.90
16515;DHT22;8370;52.556;7.970;2023-04-06T08:27:41;6.10;99.90
16515;DHT22;8370;52.556;7.970;2023-04-06T08:30:07;6.20;99.90
16515;DHT22;8370;52.556;7.970;2023-04-06T08:32:32;6.30;99.90
16515;DHT22;8370;52.556;7.970;2023-04-06T08:34:58;6.50;99.90
16515;DHT22;8370;52.556;7.970;2023-04-06T08:37:24;6.60;99.90
16515;DHT22;8370;52.556;7.970;2023-04-06T08:39:50;6.70;99.90
16515;DHT22;8370;52.556;7.970;2023-04-06T08:42:20;6.70;99.90
16515;DHT22;8370;52.556;7.970;2023-04-06T08:44:46;6.90;99.90
16515;DHT22;8370;52.556;7.970;2023-04-06T08:47:12;7.00;99.90
16515;DHT22;8370;52.556;7.970;2023-04-06T08:49:37;7.00;99.90
16515;DHT22;8370;52.556;7.970;2023-04-06T08:52:05;7.10;99.90
16515;DHT22;8370;52.556;7.970;2023-04-06T08:54:31;7.30;99.90
16515;DHT22;8370;52.556;7.970;2023-04-06T08:56:56;7.50;99.90
16515;DHT22;8370;52.556;7.970;2023-04-06T08:59:23;7.60;99.90
16515;DHT22;8370;52.556;7.970;2023-04-06T09:01:48;7.70;99.90
16515;DHT22;8370;52.556;7.970;2023-04-06T09:04:14;7.70;99.90
16515;DHT22;8370;52.556;7.970;2023-04-06T09:06:39;7.80;99.90
16515;DHT22;8370;52.556;7.970;2023-04-06T09:09:05;8.00;99.90
16515;DHT22;8370;52.556;7.970;2023-04-06T09:11:44;8.00;99.90
16515;DHT22;8370;52.556;7.970;2023-04-06T09:14:10;8.30;99.90
16515;DHT22;8370;52.556;7.970;2023-04-06T09:16:39;8.50;99.90
16515;DHT22;8370;52.556;7.970;2023-04-06T09:19:05;8.50;99.90
16515;DHT22;8370;52.556;7.970;2023-04-06T09:21:31;8.50;99.90
16515;DHT22;8370;52.556;7.970;2023-04-06T09:24:00;8.60;99.90
16515;DHT22;8370;52.556;7.970;2023-04-06T09:26:26;8.70;99.90
16515;DHT22;8370;52.556;7.970;2023-04-06T09:28:56;8.80;99.90
16515;DHT22;8370;52.556;7.970;2023-04-06T09:33:47;9.10;99.90
16515;DHT22;8370;52.556;7.970;2023-04-06T09:36:12;9.20;99.90
16515;DHT22;8370;52.556;7.970;2023-04-06T09:38:50;9.20;99.90
16515;DHT22;8370;52.556;7.970;2023-04-06T09:41:23;9.40;99.90
16515;DHT22;8370;52.556;7.970;2023-04-06T09:43:49;9.40;99.90
16515;DHT22;8370;52.556;7.970;2023-04-06T09:46:15;9.50;99.90
16515;DHT22;8370;52.556;7.970;2023-04-06T09:48:41;9.70;99.90
16515;DHT22;8370;52.556;7.970;2023-04-06T09:51:07;9.80;99.90
16515;DHT22;8370;52.556;7.970;2023-04-06T09:53:33;9.90;99.90
16515;DHT22;8370;52.556;7.970;2023-04-06T09:56:02;10.00;99.90
16515;DHT22;8370;52.556;7.970;2023-04-06T09:58:28;10.20;99.90
16515;DHT22;8370;52.556;7.970;2023-04-06T10:01:07;10.30;99.90
16515;DHT22;8370;52.556;7.970;2023-04-06T10:03:36;10.30;99.90
16515;DHT22;8370;52.556;7.970;2023-04-06T10:06:05;10.40;99.90
16515;DHT22;8370;52.556;7.970;2023-04-06T10:08:31;10.40;99.90
16515;DHT22;8370;52.556;7.970;2023-04-06T10:10:58;10.60;99.90
16515;DHT22;8370;52.556;7.970;2023-04-06T10:13:23;10.70;99.90
16515;DHT22;8370;52.556;7.970;2023-04-06T10:15:49;10.80;99.90
16515;DHT22;8370;52.556;7.970;2023-04-06T10:18:15;10.90;99.90
16515;DHT22;8370;52.556;7.970;2023-04-06T10:20:55;10.90;99.90
16515;DHT22;8370;52.556;7.970;2023-04-06T10:23:34;11.00;99.90
16515;DHT22;8370;52.556;7.970;2023-04-06T10:26:01;11.10;99.90
16515;DHT22;8370;52.556;7.970;2023-04-06T10:28:30;11.20;99.90
16515;DHT22;8370;52.556;7.970;2023-04-06T10:30:56;11.20;99.90
16515;DHT22;8370;52.556;7.970;2023-04-06T10:33:22;11.30;99.90
16515;DHT22;8370;52.556;7.970;2023-04-06T10:35:47;11.30;99.90
16515;DHT22;8370;52.556;7.970;2023-04-06T10:38:13;11.40;99.90
16515;DHT22;8370;52.556;7.970;2023-04-06T10:40:40;11.50;99.90
16515;DHT22;8370;52.556;7.970;2023-04-06T10:45:34;11.70;99.90
16515;DHT22;8370;52.556;7.970;2023-04-06T10:48:00;11.80;99.90
16515;DHT22;8370;52.556;7.970;2023-04-06T10:50:25;11.90;99.90
16515;DHT22;8370;52.556;7.970;2023-04-06T10:53:01;12.10;99.90
16515;DHT22;8370;52.556;7.970;2023-04-06T10:55:27;12.20;99.90
16515;DHT22;8370;52.556;7.970;2023-04-06T10:57:53;12.30;99.90
16515;DHT22;8370;52.556;7.970;2023-04-06T11:00:18;12.30;99.90
16515;DHT22;8370;52.556;7.970;2023-04-06T11:02:45;12.40;99.90
16515;DHT22;8370;52.556;7.970;2023-04-06T11:05:11;12.60;99.90
16515;DHT22;8370;52.556;7.970;2023-04-06T11:07:37;12.70;99.90
16515;DHT22;8370;52.556;7.970;2023-04-06T11:10:04;12.80;99.90
16515;DHT22;8370;52.556;7.970;2023-04-06T11:12:30;12.90;99.90
16515;DHT22;8370;52.556;7.970;2023-04-06T11:15:00;13.00;99.90
16515;DHT22;8370;52.556;7.970;2023-04-06T11:17:35;13.10;99.90
16515;DHT22;8370;52.556;7.970;2023-04-06T11:20:01;13.20;99.90
16515;DHT22;8370;52.556;7.970;2023-04-06T11:22:28;13.30;99.90
16515;DHT22;8370;52.556;7.970;2023-04-06T11:25:04;13.40;98.30
16515;DHT22;8370;52.556;7.970;2023-04-06T11:27:29;13.50;95.80
16515;DHT22;8370;52.556;7.970;2023-04-06T11:29:56;13.60;96.00
16515;DHT22;8370;52.556;7.970;2023-04-06T11:32:22;13.80;97.30
16515;DHT22;8370;52.556;7.970;2023-04-06T11:34:48;14.10;93.50
16515;DHT22;8370;52.556;7.970;2023-04-06T11:37:14;14.40;92.80
16515;DHT22;8370;52.556;7.970;2023-04-06T11:42:06;16.20;93.70
16515;DHT22;8370;52.556;7.970;2023-04-06T11:47:04;19.00;85.70
16515;DHT22;8370;52.556;7.970;2023-04-06T11:49:30;20.20;80.90
16515;DHT22;8370;52.556;7.970;2023-04-06T11:51:56;20.80;79.00
16515;DHT22;8370;52.556;7.970;2023-04-06T11:54:34;21.80;72.80
16515;DHT22;8370;52.556;7.970;2023-04-06T11:57:01;22.30;68.70
16515;DHT22;8370;52.556;7.970;2023-04-06T11:59:27;23.00;66.00
16515;DHT22;8370;52.556;7.970;2023-04-06T12:01:52;23.00;63.90
16515;DHT22;8370;52.556;7.970;2023-04-06T12:04:18;23.30;67.00
16515;DHT22;8370;52.556;7.970;2023-04-06T12:06:44;24.30;67.20
16515;DHT22;8370;52.556;7.970;2023-04-06T12:09:10;24.30;67.60
16515;DHT22;8370;52.556;7.970;2023-04-06T12:11:35;24.50;58.40
16515;DHT22;8370;52.556;7.970;2023-04-06T12:14:01;24.60;60.10
16515;DHT22;8370;52.556;7.970;2023-04-06T12:16:30;25.20;59.80
16515;DHT22;8370;52.556;7.970;2023-04-06T12:18:55;25.40;54.90
16515;DHT22;8370;52.556;7.970;2023-04-06T12:21:21;25.10;55.10
16515;DHT22;8370;52.556;7.970;2023-04-06T12:23:46;25.10;53.70
16515;DHT22;8370;52.556;7.970;2023-04-06T12:26:12;24.50;53.80
16515;DHT22;8370;52.556;7.970;2023-04-06T12:28:37;24.10;52.60
16515;DHT22;8370;52.556;7.970;2023-04-06T12:31:03;24.00;55.40
16515;DHT22;8370;52.556;7.970;2023-04-06T12:33:28;23.90;55.30
16515;DHT22;8370;52.556;7.970;2023-04-06T12:35:53;23.30;55.60
16515;DHT22;8370;52.556;7.970;2023-04-06T12:38:19;23.00;55.80
16515;DHT22;8370;52.556;7.970;2023-04-06T12:40:45;22.70;57.00
16515;DHT22;8370;52.556;7.970;2023-04-06T12:43:11;22.90;57.20
16515;DHT22;8370;52.556;7.970;2023-04-06T12:45:38;22.30;57.30
16515;DHT22;8370;52.556;7.970;2023-04-06T12:48:04;22.10;56.60
16515;DHT22;8370;52.556;7.970;2023-04-06T12:50:29;22.00;58.30
16515;DHT22;8370;52.556;7.970;2023-04-06T12:52:55;22.60;55.70
16515;DHT22;8370;52.556;7.970;2023-04-06T12:55:20;23.00;54.70
16515;DHT22;8370;52.556;7.970;2023-04-06T12:57:47;23.10;58.30
16515;DHT22;8370;52.556;7.970;2023-04-06T13:00:12;23.30;56.60
16515;DHT22;8370;52.556;7.970;2023-04-06T13:02:39;23.40;56.50
16515;DHT22;8370;52.556;7.970;2023-04-06T13:05:04;23.70;55.20
16515;DHT22;8370;52.556;7.970;2023-04-06T13:07:30;24.10;53.20
16515;DHT22;8370;52.556;7.970;2023-04-06T13:09:55;24.00;56.70
16515;DHT22;8370;52.556;7.970;2023-04-06T13:12:21;23.50;52.60
16515;DHT22;8370;52.556;7.970;2023-04-06T13:14:46;22.90;53.20
16515;DHT22;8370;52.556;7.970;2023-04-06T13:17:16;22.80;54.20
16515;DHT22;8370;52.556;7.970;2023-04-06T13:19:42;22.80;54.40
16515;DHT22;8370;52.556;7.970;2023-04-06T13:22:07;22.80;55.20
16515;DHT22;8370;52.556;7.970;2023-04-06T13:24:32;22.90;54.60
16515;DHT22;8370;52.556;7.970;2023-04-06T13:26:59;23.20;56.70
16515;DHT22;8370;52.556;7.970;2023-04-06T13:29:26;23.50;54.60
16515;DHT22;8370;52.556;7.970;2023-04-06T13:31:51;23.90;53.00
16515;DHT22;8370;52.556;7.970;2023-04-06T13:34:16;23.50;52.00
16515;DHT22;8370;52.556;7.970;2023-04-06T13:36:42;23.30;52.60
16515;DHT22;8370;52.556;7.970;2023-04-06T13:39:08;23.50;53.10
16515;DHT22;8370;52.556;7.970;2023-04-06T13:41:33;23.40;53.70
16515;DHT22;8370;52.556;7.970;2023-04-06T13:43:59;23.00;52.60
16515;DHT22;8370;52.556;7.970;2023-04-06T13:46:24;22.50;54.80
16515;DHT22;8370;52.556;7.970;2023-04-06T13:48:50;22.30;53.80
16515;DHT22;8370;52.556;7.970;2023-04-06T13:51:16;21.60;55.60
16515;DHT22;8370;52.556;7.970;2023-04-06T13:53:41;21.20;56.10
16515;DHT22;8370;52.556;7.970;2023-04-06T13:56:07;20.60;57.50
16515;DHT22;8370;52.556;7.970;2023-04-06T13:58:33;20.20;58.70
16515;DHT22;8370;52.556;7.970;2023-04-06T14:01:05;19.80;58.00
16515;DHT22;8370;52.556;7.970;2023-04-06T14:03:32;19.40;58.20
16515;DHT22;8370;52.556;7.970;2023-04-06T14:05:57;19.00;58.40
16515;DHT22;8370;52.556;7.970;2023-04-06T14:08:23;19.00;59.70
16515;DHT22;8370;52.556;7.970;2023-04-06T14:10:48;18.50;60.50
16515;DHT22;8370;52.556;7.970;2023-04-06T14:13:14;18.70;60.20
16515;DHT22;8370;52.556;7.970;2023-04-06T14:15:40;18.80;60.00
16515;DHT22;8370;52.556;7.970;2023-04-06T14:18:07;18.60;60.80
16515;DHT22;8370;52.556;7.970;2023-04-06T14:20:33;18.70;62.00
16515;DHT22;8370;52.556;7.970;2023-04-06T14:23:02;18.50;63.90
16515;DHT22;8370;52.556;7.970;2023-04-06T14:25:27;18.40;63.60
16515;DHT22;8370;52.556;7.970;2023-04-06T14:27:53;18.20;64.00
16515;DHT22;8370;52.556;7.970;2023-04-06T14:30:18;18.40;61.00
16515;DHT22;8370;52.556;7.970;2023-04-06T14:32:45;18.50;61.40
16515;DHT22;8370;52.556;7.970;2023-04-06T14:35:10;18.30;61.80
16515;DHT22;8370;52.556;7.970;2023-04-06T14:37:35;17.90;62.80
16515;DHT22;8370;52.556;7.970;2023-04-06T14:40:02;17.60;62.20
16515;DHT22;8370;52.556;7.970;2023-04-06T14:42:27;17.50;63.50
16515;DHT22;8370;52.556;7.970;2023-04-06T14:44:52;17.30;63.40
16515;DHT22;8370;52.556;7.970;2023-04-06T14:47:19;17.30;62.40
16515;DHT22;8370;52.556;7.970;2023-04-06T14:49:46;17.10;61.90
16515;DHT22;8370;52.556;7.970;2023-04-06T14:52:12;17.00;60.80
16515;DHT22;8370;52.556;7.970;2023-04-06T14:54:37;16.90;61.90
16515;DHT22;8370;52.556;7.970;2023-04-06T14:57:02;16.80;63.00
16515;DHT22;8370;52.556;7.970;2023-04-06T14:59:28;16.60;64.50
16515;DHT22;8370;52.556;7.970;2023-04-06T15:01:54;16.40;62.80
16515;DHT22;8370;52.556;7.970;2023-04-06T15:04:19;16.20;63.60
16515;DHT22;8370;52.556;7.970;2023-04-06T15:06:45;16.10;64.00
16515;DHT22;8370;52.556;7.970;2023-04-06T15:09:10;16.00;63.70
16515;DHT22;8370;52.556;7.970;2023-04-06T15:11:36;16.00;62.60
16515;DHT22;8370;52.556;7.970;2023-04-06T15:14:01;15.80;63.10
16515;DHT22;8370;52.556;7.970;2023-04-06T15:16:27;15.80;64.20
16515;DHT22;8370;52.556;7.970;2023-04-06T15:18:57;15.80;65.40
16515;DHT22;8370;52.556;7.970;2023-04-06T15:21:23;15.70;63.50
16515;DHT22;8370;52.556;7.970;2023-04-06T15:23:48;15.60;63.10
16515;DHT22;8370;52.556;7.970;2023-04-06T15:26:15;15.50;62.80
16515;DHT22;8370;52.556;7.970;2023-04-06T15:28:40;15.40;62.20
16515;DHT22;8370;52.556;7.970;2023-04-06T15:31:15;15.40;63.20
16515;DHT22;8370;52.556;7.970;2023-04-06T15:33:41;15.30;64.50
16515;DHT22;8370;52.556;7.970;2023-04-06T15:36:08;15.40;65.80
16515;DHT22;8370;52.556;7.970;2023-04-06T15:38:33;15.50;64.40
16515;DHT22;8370;52.556;7.970;2023-04-06T15:40:59;15.40;65.30
16515;DHT22;8370;52.556;7.970;2023-04-06T15:43:24;15.50;66.10
16515;DHT22;8370;52.556;7.970;2023-04-06T15:45:50;15.60;67.30
16515;DHT22;8370;52.556;7.970;2023-04-06T15:48:15;15.60;66.90
16515;DHT22;8370;52.556;7.970;2023-04-06T15:50:41;15.40;65.80
16515;DHT22;8370;52.556;7.970;2023-04-06T15:53:06;15.60;65.20
16515;DHT22;8370;52.556;7.970;2023-04-06T15:55:31;15.60;64.70